Time;durP1;ratioP1;P1;durP2;ratioP2;P2;SDS_P1;SDS_P2;PMS_P1;PMS_P2;Temp;Humidity;BMP_temperature;BMP_pressure;BME280_temperature;BME280_humidity;BME280_pressure;Samples;Min_cycle;Max_cycle;Signal;HPM_P1;HPM_P2
2022/10/27 00:02:14;;;;;;;65.72;62.08;;;;;;;16.10;74.35;101894.63;5015012;28;103941;-53
2022/10/27 00:04:41;;;;;;;59.90;56.42;;;;;;;16.10;74.00;101902.84;5016609;28;101937;-54
2022/10/27 00:07:08;;;;;;;69.00;65.30;;;;;;;16.09;74.38;101901.22;5015975;28;102369;-53
2022/10/27 00:09:36;;;;;;;77.63;73.38;;;;;;;16.10;73.92;101905.59;5016597;28;102152;-53
2022/10/27 00:12:06;;;;;;;67.13;63.45;;;;;;;16.10;73.93;101909.16;4995644;28;103936;-53
2022/10/27 00:14:32;;;;;;;72.47;68.53;;;;;;;16.10;74.14;101909.16;4995190;28;102310;-54
2022/10/27 00:16:59;;;;;;;67.35;63.70;;;;;;;16.11;74.38;101909.97;5012497;28;102213;-53
2022/10/27 00:19:25;;;;;;;72.00;68.05;;;;;;;16.09;73.88;101904.78;4997916;28;102598;-53
2022/10/27 00:21:57;;;;;;;72.40;68.47;;;;;;;16.08;74.48;101911.38;5010194;28;104157;-53
2022/10/27 00:24:23;;;;;;;66.53;62.80;;;;;;;16.09;74.25;101912.22;5015530;27;102314;-53
2022/10/27 00:26:51;;;;;;;68.60;64.95;;;;;;;16.09;73.91;101913.03;5015487;28;101983;-53
2022/10/27 00:29:18;;;;;;;74.85;70.72;;;;;;;16.09;74.23;101910.28;5016685;27;102319;-53
2022/10/27 00:31:44;;;;;;;65.55;61.92;;;;;;;16.08;74.11;101914.13;5015231;28;104099;-53
2022/10/27 00:34:11;;;;;;;67.82;63.95;;;;;;;16.09;74.41;101918.50;5015235;28;102408;-53
2022/10/27 00:36:38;;;;;;;66.43;62.80;;;;;;;16.07;74.24;101912.47;5015406;28;102021;-53
2022/10/27 00:39:05;;;;;;;65.28;61.70;;;;;;;16.09;74.01;101912.22;5006629;28;102137;-54
2022/10/27 00:41:33;;;;;;;67.25;63.63;;;;;;;16.08;74.13;101914.13;4994971;28;104040;-54
2022/10/27 00:44:22;;;;;;;70.47;66.70;;;;;;;16.09;74.22;101912.22;4995104;28;102306;-53
2022/10/27 00:46:49;;;;;;;65.70;62.03;;;;;;;16.08;73.88;101914.13;4996451;28;101987;-53
2022/10/27 00:49:20;;;;;;;66.57;62.95;;;;;;;16.09;74.14;101915.78;5005480;28;102828;-53
2022/10/27 00:51:51;;;;;;;74.38;70.38;;;;;;;16.08;73.94;101922.38;5005846;28;104209;-53
2022/10/27 00:54:19;;;;;;;72.25;68.32;;;;;;;16.08;73.94;101916.88;5010049;28;101874;-53
2022/10/27 00:56:49;;;;;;;68.63;64.90;;;;;;;16.08;74.12;101916.88;4994824;28;102076;-53
2022/10/27 00:59:17;;;;;;;69.60;65.82;;;;;;;16.07;74.34;101926.19;4996167;28;102275;-53
2022/10/27 01:01:45;;;;;;;66.05;62.35;;;;;;;16.07;74.07;101926.19;4999406;28;103779;-53
2022/10/27 01:04:13;;;;;;;67.97;64.32;;;;;;;16.08;73.97;101914.13;5015290;28;102599;-53
2022/10/27 01:06:40;;;;;;;65.15;61.58;;;;;;;16.08;74.36;101927.88;5013827;28;102247;-53
2022/10/27 01:09:07;;;;;;;73.22;69.32;;;;;;;16.08;74.10;101927.00;5014523;28;101899;-53
2022/10/27 01:11:34;;;;;;;73.47;69.55;;;;;;;16.07;74.43;101926.19;5010377;27;104172;-53
2022/10/27 01:14:01;;;;;;;67.22;63.47;;;;;;;16.08;73.91;101933.34;5013416;28;102154;-53
2022/10/27 01:16:38;;;;;;;69.50;65.78;;;;;;;16.07;73.97;101931.69;5000964;28;102335;-53
2022/10/27 01:19:22;;;;;;;66.28;62.72;;;;;;;16.08;73.86;101927.88;4996030;28;102350;-53
2022/10/27 01:21:57;;;;;;;67.25;63.55;;;;;;;16.07;73.90;101928.94;4994559;28;104086;-53
2022/10/27 01:25:06;;;;;;;68.65;64.88;;;;;;;16.08;74.01;101930.59;5007497;28;102374;-53
2022/10/27 01:27:57;;;;;;;64.38;60.78;;;;;;;16.08;74.32;101936.09;4994375;28;102460;-53
2022/10/27 01:30:27;;;;;;;67.22;63.47;;;;;;;16.08;74.04;101927.88;4995405;28;102302;-54
2022/10/27 01:33:05;;;;;;;63.58;60.13;;;;;;;16.07;73.93;101926.19;5001244;28;104157;-54
2022/10/27 01:35:37;;;;;;;76.00;71.85;;;;;;;16.07;73.84;101931.69;5004562;28;102241;-54
2022/10/27 01:38:12;;;;;;;65.07;61.55;;;;;;;16.09;73.94;101935.00;5003356;28;102210;-53
2022/10/27 01:40:45;;;;;;;72.18;68.20;;;;;;;16.09;74.24;101936.91;5008146;28;102442;-53
2022/10/27 01:43:17;;;;;;;70.25;66.50;;;;;;;16.08;74.12;101938.84;5012200;28;104045;-53
2022/10/27 01:45:44;;;;;;;61.88;58.53;;;;;;;16.09;74.13;101939.66;5013685;28;102430;-53
2022/10/27 01:48:13;;;;;;;69.15;65.43;;;;;;;16.07;74.40;101950.91;5013945;28;102068;-53
2022/10/27 01:50:42;;;;;;;66.95;63.35;;;;;;;16.07;73.98;101937.19;5010521;28;102254;-53
2022/10/27 01:53:10;;;;;;;66.43;62.83;;;;;;;16.09;74.35;101951.47;5013530;28;103924;-53
2022/10/27 01:55:51;;;;;;;61.28;57.95;;;;;;;16.08;74.12;101947.09;5012490;28;102219;-53
2022/10/27 01:58:30;;;;;;;64.88;61.35;;;;;;;16.08;74.17;101951.72;4999146;28;102245;-53
2022/10/27 02:01:13;;;;;;;68.75;65.05;;;;;;;16.08;74.30;101954.47;5028931;27;102410;-53
2022/10/27 02:03:50;;;;;;;71.63;67.72;;;;;;;16.07;74.55;101958.34;5027750;28;103841;-53
2022/10/27 02:06:23;;;;;;;66.32;62.70;;;;;;;16.08;74.26;101957.22;5032550;27;104710;-53
2022/10/27 02:08:53;;;;;;;58.55;55.35;;;;;;;16.07;74.15;101953.66;5033085;27;102398;-53
2022/10/27 02:11:20;;;;;;;68.30;64.60;;;;;;;16.07;74.43;101959.16;5035208;27;102480;-53
2022/10/27 02:13:46;;;;;;;70.10;66.35;;;;;;;16.07;74.05;101959.16;5033205;27;103878;-54
2022/10/27 02:16:20;;;;;;;68.35;64.60;;;;;;;16.08;74.00;101966.31;5021811;27;102578;-54
2022/10/27 02:18:53;;;;;;;70.13;66.28;;;;;;;16.07;74.41;101963.81;5017791;28;102216;-53
2022/10/27 02:21:23;;;;;;;63.72;60.30;;;;;;;16.06;74.19;101971.25;5024590;27;102201;-53
2022/10/27 02:23:52;;;;;;;67.35;63.75;;;;;;;16.07;74.26;101977.56;5036796;27;103869;-53
2022/10/27 02:26:23;;;;;;;70.20;66.38;;;;;;;16.08;73.98;101981.94;5037776;27;102371;-53
2022/10/27 02:28:54;;;;;;;66.75;63.22;;;;;;;16.06;74.23;101984.97;5036698;27;102284;-53
2022/10/27 02:31:27;;;;;;;63.63;60.17;;;;;;;16.05;74.04;101988.81;5038314;27;102210;-53
2022/10/27 02:33:57;;;;;;;61.42;58.05;;;;;;;16.07;74.46;101996.78;5031479;27;103858;-53
2022/10/27 02:36:24;;;;;;;66.45;62.83;;;;;;;16.06;74.33;102001.44;5035662;27;102425;-53
2022/10/27 02:38:50;;;;;;;63.78;60.30;;;;;;;16.06;74.52;102006.94;5016852;28;102268;-53
2022/10/27 02:41:16;;;;;;;71.10;67.32;;;;;;;16.05;74.46;102012.72;5018459;28;102129;-53
2022/10/27 02:43:45;;;;;;;66.18;62.55;;;;;;;16.06;73.94;102017.94;5021126;28;103889;-53
2022/10/27 02:46:12;;;;;;;64.80;61.22;;;;;;;16.06;74.40;102012.44;5037303;27;102266;-53
2022/10/27 02:48:38;;;;;;;57.90;54.65;;;;;;;16.07;74.09;102016.81;5021653;27;102399;-53
2022/10/27 02:51:06;;;;;;;67.93;64.28;;;;;;;16.06;74.25;102012.44;5019732;28;102147;-53
2022/10/27 02:53:33;;;;;;;69.30;65.50;;;;;;;16.05;74.18;102013.53;5036382;27;104036;-53
2022/10/27 02:55:59;;;;;;;68.35;64.72;;;;;;;16.05;73.94;102016.28;5035354;27;102919;-53
2022/10/27 02:58:26;;;;;;;66.97;63.42;;;;;;;16.06;74.39;102022.59;5036152;27;102268;-53
2022/10/27 03:00:53;;;;;;;71.78;67.97;;;;;;;16.05;74.47;102031.94;5037197;27;102162;-53
2022/10/27 03:03:20;;;;;;;71.75;67.85;;;;;;;16.05;74.53;102015.47;5036492;27;103974;-53
2022/10/27 03:05:46;;;;;;;67.45;63.85;;;;;;;16.04;74.07;102022.84;5037362;27;102329;-53
2022/10/27 03:08:15;;;;;;;66.60;63.03;;;;;;;16.04;74.50;102022.84;5029129;27;102981;-53
2022/10/27 03:10:44;;;;;;;64.63;61.13;;;;;;;16.03;74.42;102026.72;5017868;28;102106;-53
2022/10/27 03:13:11;;;;;;;64.80;61.35;;;;;;;16.04;74.13;102017.38;5026980;28;104042;-53
2022/10/27 03:15:38;;;;;;;66.15;62.67;;;;;;;16.04;74.00;102031.09;5029547;27;102867;-53
2022/10/27 03:18:05;;;;;;;68.32;64.60;;;;;;;16.04;74.26;102025.59;5029775;27;102441;-53
2022/10/27 03:20:31;;;;;;;70.07;66.20;;;;;;;16.04;74.46;102030.28;5037881;27;102500;-53
2022/10/27 03:22:58;;;;;;;65.28;61.75;;;;;;;16.04;74.32;102033.84;5026332;27;103899;-54
2022/10/27 03:25:26;;;;;;;65.25;61.80;;;;;;;16.03;74.17;102034.94;5032557;27;102430;-53
2022/10/27 03:27:52;;;;;;;66.72;63.15;;;;;;;16.04;74.50;102036.59;5034997;27;102157;-54
2022/10/27 03:30:39;;;;;;;63.58;60.13;;;;;;;16.02;74.60;102036.06;5032690;27;102643;-53
2022/10/27 03:33:07;;;;;;;64.47;61.00;;;;;;;16.04;74.02;102036.59;5035327;27;104110;-53
2022/10/27 03:35:33;;;;;;;66.47;62.90;;;;;;;16.03;74.13;102034.13;5030020;27;102245;-53
2022/10/27 03:38:00;;;;;;;73.38;69.47;;;;;;;16.03;73.98;102034.13;5018784;28;102204;-53
2022/10/27 03:40:28;;;;;;;65.75;62.17;;;;;;;16.01;74.05;102034.41;5019487;28;102080;-53
2022/10/27 03:42:58;;;;;;;68.67;65.00;;;;;;;16.01;73.99;102039.91;5035284;27;104252;-53
2022/10/27 03:45:25;;;;;;;71.18;67.35;;;;;;;16.03;74.45;102045.13;5029322;27;102326;-53
2022/10/27 03:47:59;;;;;;;68.00;64.28;;;;;;;16.03;74.35;102034.13;5031859;27;102524;-54
2022/10/27 03:50:26;;;;;;;67.90;64.20;;;;;;;16.03;74.40;102043.19;4997793;28;102207;-53
2022/10/27 03:52:52;;;;;;;64.53;60.92;;;;;;;16.03;73.92;102051.44;5015338;28;103913;-53
2022/10/27 03:55:19;;;;;;;71.25;67.50;;;;;;;16.03;74.24;102056.91;5015477;28;102453;-54
2022/10/27 03:57:47;;;;;;;73.07;69.18;;;;;;;16.03;74.22;102045.94;5012809;28;102371;-54
2022/10/27 04:00:14;;;;;;;68.63;65.00;;;;;;;16.02;73.93;102049.78;5017435;28;102383;-54
2022/10/27 04:02:41;;;;;;;69.75;66.00;;;;;;;16.03;74.38;102051.44;5009962;28;103836;-53
2022/10/27 04:05:08;;;;;;;70.53;66.75;;;;;;;16.03;74.44;102056.09;4995912;28;102341;-53
2022/10/27 04:07:35;;;;;;;76.88;72.80;;;;;;;16.04;74.29;102049.50;4995442;28;103145;-53
2022/10/27 04:10:03;;;;;;;65.45;61.95;;;;;;;16.03;74.37;102056.91;5012698;28;102331;-53
2022/10/27 04:12:32;;;;;;;65.28;61.72;;;;;;;16.03;74.24;102053.34;5015328;28;104085;-53
2022/10/27 04:15:07;;;;;;;67.85;64.13;;;;;;;16.04;73.97;102057.72;5014256;28;102323;-53
2022/10/27 04:17:33;;;;;;;66.72;63.13;;;;;;;16.02;74.32;102055.28;4998412;28;102267;-53
2022/10/27 04:19:59;;;;;;;64.35;60.83;;;;;;;16.03;74.16;102062.41;5015756;28;102139;-53
2022/10/27 04:22:26;;;;;;;69.30;65.70;;;;;;;16.02;74.32;102055.28;5014913;28;103475;-53
2022/10/27 04:24:52;;;;;;;65.55;62.00;;;;;;;16.01;74.33;102064.63;5013355;28;102113;-53
2022/10/27 04:27:18;;;;;;;75.32;71.38;;;;;;;16.00;74.22;102060.22;5015605;28;102233;-53
2022/10/27 04:29:45;;;;;;;62.67;59.30;;;;;;;16.03;74.11;102067.91;5016793;28;102452;-53
2022/10/27 04:32:13;;;;;;;66.63;63.08;;;;;;;16.02;73.95;102060.78;5002675;28;103952;-53
2022/10/27 04:34:40;;;;;;;65.68;62.10;;;;;;;16.01;74.21;102074.75;5005336;28;101922;-53
2022/10/27 04:37:09;;;;;;;64.13;60.75;;;;;;;16.01;74.32;102080.25;5021214;27;103529;-53
2022/10/27 04:39:36;;;;;;;68.32;64.68;;;;;;;16.01;74.27;102078.34;5015442;27;102344;-53
2022/10/27 04:42:02;;;;;;;74.85;70.90;;;;;;;16.00;74.42;102084.91;4994414;28;104060;-53
2022/10/27 04:44:30;;;;;;;69.70;65.97;;;;;;;16.01;74.02;102089.34;4995987;28;102363;-53
2022/10/27 04:46:56;;;;;;;67.57;63.90;;;;;;;16.01;74.42;102092.09;4995122;28;102468;-53
2022/10/27 04:49:24;;;;;;;67.90;64.25;;;;;;;16.01;74.00;102088.50;4997382;28;104105;-53
2022/10/27 04:51:50;;;;;;;64.43;60.92;;;;;;;16.01;73.99;102085.75;5005137;27;103904;-53
2022/10/27 04:54:17;;;;;;;61.45;58.10;;;;;;;16.01;74.15;102089.34;4998700;28;101986;-53
2022/10/27 04:56:44;;;;;;;68.75;64.95;;;;;;;16.00;74.38;102090.41;5009568;28;102287;-53
2022/10/27 04:59:11;;;;;;;66.82;63.30;;;;;;;16.01;73.97;102097.56;5024573;27;102157;-53
2022/10/27 05:01:38;;;;;;;68.43;64.63;;;;;;;16.01;74.49;102103.06;5033542;27;103774;-53
2022/10/27 05:04:06;;;;;;;69.82;66.03;;;;;;;16.01;74.27;102102.22;5033532;27;102214;-54
2022/10/27 05:06:34;;;;;;;71.35;67.50;;;;;;;16.03;74.06;102105.53;5034084;27;102206;-53
2022/10/27 05:09:03;;;;;;;75.60;71.57;;;;;;;16.03;75.29;102108.28;5020623;27;102476;-53
2022/10/27 05:11:29;;;;;;;76.35;72.15;;;;;;;16.04;75.35;102112.66;5014618;28;103879;-53
2022/10/27 05:13:57;;;;;;;72.53;68.60;;;;;;;16.04;75.68;102118.97;5025828;27;102033;-53
2022/10/27 05:16:23;;;;;;;74.70;70.60;;;;;;;16.04;75.77;102123.63;5022142;27;102048;-53
2022/10/27 05:18:50;;;;;;;75.32;71.25;;;;;;;16.05;75.69;102114.31;5021936;28;102554;-54
2022/10/27 05:21:16;;;;;;;75.93;71.85;;;;;;;16.03;75.27;102125.56;5024817;27;103832;-53
2022/10/27 05:23:45;;;;;;;74.50;70.45;;;;;;;16.02;75.37;102123.94;5021134;28;102117;-53
2022/10/27 05:26:11;;;;;;;77.78;73.65;;;;;;;16.03;75.17;102133.81;5023620;28;103745;-53
2022/10/27 05:28:42;;;;;;;73.38;69.43;;;;;;;16.02;74.98;102131.34;5018957;28;102621;-53
2022/10/27 05:31:09;;;;;;;66.90;63.38;;;;;;;16.04;74.80;102134.63;5031059;27;103991;-53
2022/10/27 05:33:36;;;;;;;75.35;71.32;;;;;;;16.04;74.61;102135.44;5022287;27;102507;-53
2022/10/27 05:36:04;;;;;;;79.72;75.28;;;;;;;16.05;74.56;102142.59;5021249;28;102259;-53
2022/10/27 05:38:33;;;;;;;74.35;70.32;;;;;;;16.07;74.64;102142.31;5026484;28;102551;-53
2022/10/27 05:41:01;;;;;;;74.47;70.47;;;;;;;16.08;74.19;102153.03;5026701;27;103937;-53
2022/10/27 05:43:28;;;;;;;75.53;71.45;;;;;;;16.09;74.52;102154.69;5014521;28;102936;-53
2022/10/27 05:45:54;;;;;;;71.03;67.18;;;;;;;16.09;74.14;102149.19;5012916;28;102214;-53
2022/10/27 05:48:21;;;;;;;73.95;69.93;;;;;;;16.12;74.33;102153.31;5012676;28;102216;-53
2022/10/27 05:50:51;;;;;;;66.18;62.63;;;;;;;16.12;74.34;102163.47;5012287;27;104037;-53
2022/10/27 05:53:17;;;;;;;69.57;65.82;;;;;;;16.10;74.51;102164.56;5014560;28;102065;-53
2022/10/27 05:55:44;;;;;;;76.28;72.22;;;;;;;16.10;74.42;102167.31;5037459;27;102261;-53
2022/10/27 05:58:12;;;;;;;62.78;59.38;;;;;;;16.12;74.33;102166.22;5038269;27;102254;-53
2022/10/27 06:00:39;;;;;;;72.90;69.00;;;;;;;16.12;74.43;102174.44;5021914;27;103755;-53
2022/10/27 06:03:18;;;;;;;73.25;69.43;;;;;;;16.11;74.54;102173.63;5019690;28;102512;-53
2022/10/27 06:05:44;;;;;;;66.63;63.08;;;;;;;16.11;74.64;102168.13;4999992;28;102078;-53
2022/10/27 06:08:10;;;;;;;70.18;66.38;;;;;;;16.12;74.32;102177.19;5022055;28;102770;-53
2022/10/27 06:10:38;;;;;;;72.90;68.95;;;;;;;16.10;74.81;102183.78;5017198;28;104491;-54
2022/10/27 06:13:06;;;;;;;73.25;69.38;;;;;;;16.10;74.79;102185.72;5010955;28;102649;-53
2022/10/27 06:15:35;;;;;;;75.97;71.93;;;;;;;16.10;74.28;102183.78;5009470;28;102376;-53
2022/10/27 06:18:02;;;;;;;69.10;65.38;;;;;;;16.12;74.60;102179.94;5013172;27;102221;-53
2022/10/27 06:20:29;;;;;;;67.72;64.05;;;;;;;16.10;74.68;102182.97;5023580;28;103984;-53
2022/10/27 06:22:58;;;;;;;66.90;63.33;;;;;;;16.09;74.38;102187.66;5003200;28;103073;-53
2022/10/27 06:25:25;;;;;;;78.63;74.43;;;;;;;16.11;74.46;102187.34;5011266;28;102340;-53
2022/10/27 06:27:52;;;;;;;71.28;67.50;;;;;;;16.12;74.70;102188.19;5013999;28;102535;-53
2022/10/27 06:30:19;;;;;;;63.47;59.95;;;;;;;16.10;74.89;102189.28;5004828;28;103965;-53
2022/10/27 06:32:46;;;;;;;67.00;63.25;;;;;;;16.09;74.70;102186.81;5006691;28;102401;-53
2022/10/27 06:35:13;;;;;;;80.60;76.38;;;;;;;16.10;74.74;102194.78;5018431;28;102571;-53
2022/10/27 06:37:42;;;;;;;68.00;64.28;;;;;;;16.09;74.60;102187.66;5015018;27;102134;-53
2022/10/27 06:40:11;;;;;;;69.72;65.93;;;;;;;16.11;74.14;102190.09;5027902;27;103890;-53
2022/10/27 06:42:39;;;;;;;66.32;62.72;;;;;;;16.11;74.21;102190.09;5012415;28;102472;-53
2022/10/27 06:45:07;;;;;;;78.07;73.72;;;;;;;16.12;74.18;102191.78;5008037;28;102625;-53
2022/10/27 06:47:34;;;;;;;68.15;64.38;;;;;;;16.13;73.93;102195.34;5009070;28;102247;-53
2022/10/27 06:50:02;;;;;;;67.05;63.38;;;;;;;16.13;74.12;102198.09;5002898;28;104012;-53
2022/10/27 06:52:29;;;;;;;70.50;66.70;;;;;;;16.14;74.03;102205.22;5018146;28;102911;-53
2022/10/27 06:54:55;;;;;;;68.90;65.13;;;;;;;16.13;74.25;102185.19;5018326;28;102491;-53
2022/10/27 06:57:22;;;;;;;73.05;69.00;;;;;;;16.14;74.09;102194.25;5011089;28;102748;-53
2022/10/27 06:59:48;;;;;;;61.88;58.45;;;;;;;16.15;74.21;102195.88;5015909;28;104181;-53
2022/10/27 07:02:15;;;;;;;69.20;65.35;;;;;;;16.15;73.84;102196.69;5020215;28;102004;-53
2022/10/27 07:04:41;;;;;;;68.47;64.57;;;;;;;16.16;74.33;102197.53;5019089;28;102161;-53
2022/10/27 07:07:10;;;;;;;66.72;63.00;;;;;;;16.15;74.18;102196.69;5016156;28;102161;-53
2022/10/27 07:09:36;;;;;;;70.13;66.07;;;;;;;16.15;74.12;102190.38;5012625;28;104207;-53
2022/10/27 07:12:03;;;;;;;69.78;65.82;;;;;;;16.17;73.82;102201.94;5009841;28;102482;-53
2022/10/27 07:14:30;;;;;;;67.63;63.83;;;;;;;16.17;74.26;102199.19;5010206;28;102325;-53
2022/10/27 07:16:57;;;;;;;63.38;59.88;;;;;;;16.17;74.02;102194.50;5008525;28;102311;-53
2022/10/27 07:19:24;;;;;;;70.93;67.10;;;;;;;16.18;74.08;102189.84;5013128;28;104115;-53
2022/10/27 07:21:50;;;;;;;69.18;65.28;;;;;;;16.18;73.99;102189.84;5013959;28;102556;-53
2022/10/27 07:24:18;;;;;;;65.40;61.72;;;;;;;16.19;73.89;102191.47;5007546;28;102120;-53
2022/10/27 07:26:45;;;;;;;72.10;68.00;;;;;;;16.19;73.83;102196.97;5016332;28;102631;-53
2022/10/27 07:29:12;;;;;;;73.85;69.90;;;;;;;16.18;74.07;102195.34;5022399;27;103859;-53
2022/10/27 07:31:43;;;;;;;77.90;73.72;;;;;;;16.19;73.91;102195.09;5026943;27;102903;-53
2022/10/27 07:34:09;;;;;;;73.00;69.05;;;;;;;16.20;74.28;102195.91;5031120;27;102032;-53
2022/10/27 07:36:36;;;;;;;70.70;66.88;;;;;;;16.21;74.05;102194.78;5033239;27;102791;-53
2022/10/27 07:39:03;;;;;;;73.40;69.43;;;;;;;16.21;74.17;102203.03;5025046;27;103819;-53
2022/10/27 07:41:31;;;;;;;72.25;68.40;;;;;;;16.21;74.22;102200.28;5016741;27;102572;-53
2022/10/27 07:43:57;;;;;;;75.93;71.70;;;;;;;16.22;73.99;102197.25;5032571;27;102510;-53
2022/10/27 07:46:24;;;;;;;71.72;67.85;;;;;;;16.23;74.36;102200.84;5032288;27;102583;-53
2022/10/27 07:48:50;;;;;;;72.50;68.32;;;;;;;16.24;73.88;102191.50;5025335;27;103929;-53
2022/10/27 07:51:17;;;;;;;73.30;69.18;;;;;;;16.24;73.96;102192.31;5031307;27;103980;-53
2022/10/27 07:53:43;;;;;;;72.32;68.40;;;;;;;16.26;74.31;102203.03;5007928;27;102221;-53
2022/10/27 07:56:11;;;;;;;71.07;67.25;;;;;;;16.27;74.03;102199.19;5001040;28;102480;-53
2022/10/27 07:58:38;;;;;;;71.78;67.93;;;;;;;16.27;73.86;102200.03;5007589;28;104854;-53
2022/10/27 08:01:05;;;;;;;78.07;73.87;;;;;;;16.26;74.06;102197.53;5008507;28;102567;-53
2022/10/27 08:03:33;;;;;;;75.78;71.72;;;;;;;16.26;74.50;102194.78;5011990;28;102063;-53
2022/10/27 08:06:04;;;;;;;63.13;59.50;;;;;;;16.25;73.80;102193.97;5006101;28;102500;-52
2022/10/27 08:08:31;;;;;;;65.78;62.13;;;;;;;16.25;74.19;102190.41;5013043;28;104105;-53
2022/10/27 08:11:01;;;;;;;74.15;70.10;;;;;;;16.27;74.11;102200.03;5010311;28;102187;-53
2022/10/27 08:13:30;;;;;;;82.32;77.93;;;;;;;16.27;73.95;102193.72;5011712;28;102510;-53
2022/10/27 08:16:00;;;;;;;73.80;69.82;;;;;;;16.27;74.15;102193.72;5004982;28;102751;-53
2022/10/27 08:18:27;;;;;;;74.03;70.03;;;;;;;16.28;73.66;102201.66;5006089;28;104060;-53
2022/10/27 08:20:53;;;;;;;72.07;68.10;;;;;;;16.29;74.06;102205.22;5022470;27;102480;-53
2022/10/27 08:23:24;;;;;;;72.07;68.10;;;;;;;16.29;73.67;102202.47;5030779;27;103662;-53
2022/10/27 08:25:51;;;;;;;76.05;71.90;;;;;;;16.29;74.00;102199.75;5034159;27;102484;-53
2022/10/27 08:28:18;;;;;;;75.03;71.00;;;;;;;16.29;74.11;102191.50;5032715;27;103883;-53
2022/10/27 08:30:44;;;;;;;77.15;72.93;;;;;;;16.30;74.00;102199.47;5033060;27;101871;-54
2022/10/27 08:33:12;;;;;;;76.70;72.50;;;;;;;16.31;74.04;102200.31;5031889;27;102392;-53
2022/10/27 08:35:40;;;;;;;;;;;;;;;16.33;73.65;102203.59;5032073;28;102564;-53
2022/10/27 08:38:09;;;;;;;67.38;63.53;;;;;;;16.34;73.69;102205.25;5029670;27;104043;-53
2022/10/27 08:40:43;;;;;;;68.40;64.53;;;;;;;16.38;73.99;102205.53;5025610;27;102717;-53
2022/10/27 08:43:41;;;;;;;68.82;64.93;;;;;;;16.37;73.81;102204.69;5024716;27;102110;-53
2022/10/27 08:46:18;;;;;;;64.38;60.83;;;;;;;16.38;74.08;102200.84;5020436;27;102518;-53
2022/10/27 08:48:48;;;;;;;75.90;71.78;;;;;;;16.38;73.71;102211.84;5018210;28;103924;-53
2022/10/27 08:51:17;;;;;;;75.00;70.68;;;;;;;16.38;74.10;102198.09;5032105;27;102100;-53
2022/10/27 08:53:47;;;;;;;69.60;65.80;;;;;;;16.39;73.89;102196.19;5026578;27;102259;-53
2022/10/27 08:56:14;;;;;;;75.05;71.05;;;;;;;16.38;73.72;102217.34;5025229;27;102116;-53
2022/10/27 08:58:43;;;;;;;71.63;67.70;;;;;;;16.38;73.96;102206.34;5018945;27;103897;-53
2022/10/27 09:01:26;;;;;;;70.88;67.00;;;;;;;16.37;73.77;102204.69;5028284;27;102674;-53
2022/10/27 09:04:09;;;;;;;66.07;62.42;;;;;;;16.38;74.01;102205.53;5027332;27;102567;-53
2022/10/27 09:06:46;;;;;;;68.53;64.60;;;;;;;16.39;73.50;102199.75;5028035;27;102464;-53
2022/10/27 09:09:21;;;;;;;69.85;66.07;;;;;;;16.38;73.79;102198.09;5032153;27;103990;-53
2022/10/27 09:11:55;;;;;;;71.93;68.00;;;;;;;16.38;73.98;102184.38;5030755;27;102440;-53
2022/10/27 09:14:47;;;;;;;70.18;66.40;;;;;;;16.39;73.60;102194.25;5027744;27;102611;-53
2022/10/27 09:17:19;;;;;;;65.30;61.78;;;;;;;16.40;73.29;102192.31;5029573;27;102215;-53
2022/10/27 09:19:52;;;;;;;69.13;65.38;;;;;;;16.39;73.78;102194.25;5030367;27;104039;-53
2022/10/27 09:22:20;;;;;;;72.10;68.18;;;;;;;16.39;73.75;102188.75;5029972;27;102622;-53
2022/10/27 09:24:58;;;;;;;67.73;63.87;;;;;;;16.41;73.48;102185.72;5015289;28;102649;-53
2022/10/27 09:27:25;;;;;;;69.78;65.97;;;;;;;16.39;73.85;102180.50;5023436;27;102634;-53
2022/10/27 09:29:54;;;;;;;67.88;64.15;;;;;;;16.40;73.42;102182.16;5024169;27;103977;-53
2022/10/27 09:32:24;;;;;;;71.22;67.30;;;;;;;16.40;73.69;102187.66;5023450;27;102811;-53
2022/10/27 09:34:57;;;;;;;72.60;68.57;;;;;;;16.41;73.67;102183.81;5022435;27;102594;-53
2022/10/27 09:37:27;;;;;;;77.05;72.80;;;;;;;16.41;73.23;102183.81;5024489;27;102377;-53
2022/10/27 09:39:56;;;;;;;72.00;68.13;;;;;;;16.40;73.67;102182.16;5019122;28;103907;-53
2022/10/27 09:42:23;;;;;;;72.43;68.40;;;;;;;16.40;73.33;102184.91;5019674;28;102689;-53
2022/10/27 09:44:53;;;;;;;76.53;72.47;;;;;;;16.40;73.42;102187.66;5021152;28;102152;-53
2022/10/27 09:47:21;;;;;;;72.95;68.95;;;;;;;16.41;73.30;102177.47;5028372;27;102678;-53
2022/10/27 09:49:49;;;;;;;68.20;64.47;;;;;;;16.41;73.67;102183.81;5025192;27;103900;-53
2022/10/27 09:52:23;;;;;;;69.47;65.63;;;;;;;16.42;73.31;102192.88;5020075;27;102151;-53
2022/10/27 09:54:51;;;;;;;66.20;62.50;;;;;;;16.42;73.29;102192.88;5018549;28;102213;-53
2022/10/27 09:57:20;;;;;;;63.08;59.65;;;;;;;16.40;73.60;102187.66;5029162;27;102786;-53
2022/10/27 09:59:51;;;;;;;62.22;58.78;;;;;;;16.39;73.21;102186.00;5028034;27;104015;-53
2022/10/27 10:02:24;;;;;;;66.45;62.78;;;;;;;16.39;73.35;102191.50;5024745;27;102745;-53
2022/10/27 10:04:51;;;;;;;60.67;57.28;;;;;;;16.37;72.96;102182.69;5024329;27;102797;-53
2022/10/27 10:07:34;;;;;;;71.00;66.97;;;;;;;16.38;73.61;102183.56;5022800;27;102090;-53
2022/10/27 10:10:06;;;;;;;64.38;60.83;;;;;;;16.38;72.89;102184.38;4993159;28;108201;-53
2022/10/27 10:12:33;;;;;;;66.82;63.15;;;;;;;16.37;73.68;102184.63;5006240;28;102254;-53
2022/10/27 10:15:17;;;;;;;62.25;58.58;;;;;;;16.37;73.23;102182.69;5011344;28;102472;-53
2022/10/27 10:17:52;;;;;;;64.95;61.33;;;;;;;16.34;72.83;102175.03;5012732;28;102221;-53
2022/10/27 10:20:36;;;;;;;66.15;62.45;;;;;;;16.36;72.96;102185.72;5004645;28;104235;-53
2022/10/27 10:23:17;;;;;;;69.93;66.00;;;;;;;16.34;73.08;102188.78;5006740;28;103506;-53
2022/10/27 10:25:47;;;;;;;67.32;63.67;;;;;;;16.33;73.25;102187.91;4997796;28;102493;-53
2022/10/27 10:28:18;;;;;;;;;;;;;;;16.33;73.46;102193.41;5007441;28;102712;-53
2022/10/27 10:30:49;;;;;;;56.08;52.95;;;;;;;16.33;73.10;102200.84;5020833;27;103985;-53
2022/10/27 10:33:17;;;;;;;64.05;60.55;;;;;;;16.31;72.96;102195.63;5025172;27;102035;-53
2022/10/27 10:35:45;;;;;;;65.10;61.57;;;;;;;16.31;73.38;102200.31;5019984;27;102431;-53
2022/10/27 10:38:27;;;;;;;70.60;66.72;;;;;;;16.31;73.15;102194.81;5031081;27;103065;-53
2022/10/27 10:41:15;;;;;;;64.63;61.13;;;;;;;16.30;72.85;102195.88;5019912;28;104644;-53
2022/10/27 10:43:42;;;;;;;62.30;58.92;;;;;;;16.31;72.72;102200.31;5024560;28;102634;-53
2022/10/27 10:46:19;;;;;;;72.88;68.93;;;;;;;16.29;72.81;102186.81;5021849;27;102525;-54
2022/10/27 10:48:49;;;;;;;63.58;60.03;;;;;;;16.29;72.69;102197.00;5034658;27;102245;-53
2022/10/27 10:51:25;;;;;;;64.72;61.17;;;;;;;16.29;72.77;102203.31;5022559;28;103941;-54
2022/10/27 10:53:58;;;;;;;65.60;62.00;;;;;;;16.28;72.79;102196.16;5029348;27;102881;-54
2022/10/27 10:56:28;;;;;;;66.20;62.65;;;;;;;16.28;73.17;102193.41;5022251;27;102494;-53
2022/10/27 10:59:01;;;;;;;63.53;60.10;;;;;;;16.29;73.10;102186.00;5026478;27;102718;-54
2022/10/27 11:01:40;;;;;;;63.35;59.80;;;;;;;16.28;72.87;102189.84;5033623;27;104094;-53
2022/10/27 11:04:09;;;;;;;63.50;59.92;;;;;;;16.27;72.93;102183.53;5033165;27;102946;-53
2022/10/27 11:06:36;;;;;;;64.72;61.10;;;;;;;16.27;73.22;102180.78;5017806;27;102680;-53
2022/10/27 11:09:04;;;;;;;61.92;58.47;;;;;;;16.26;73.04;102192.03;5009625;27;103035;-54
2022/10/27 11:11:35;;;;;;;61.83;58.30;;;;;;;16.26;72.91;102192.88;5008839;27;103817;-54
2022/10/27 11:14:06;;;;;;;62.88;59.53;;;;;;;16.25;72.83;102185.72;5010012;28;102366;-54